createdAt,value
2019-04-20T00:02:08.342Z,17.25
2019-04-20T00:04:34.233Z,17.25
2019-04-20T00:07:03.922Z,17.28
2019-04-20T00:09:36.980Z,17.29
2019-04-20T00:12:15.068Z,17.23
2019-04-20T00:14:38.864Z,17.19
2019-04-20T00:17:07.892Z,17.10
2019-04-20T00:19:44.112Z,17.08
2019-04-20T00:22:17.245Z,16.94
2019-04-20T00:25:11.923Z,16.77
2019-04-20T00:28:15.236Z,16.81
2019-04-20T00:30:48.117Z,16.82
2019-04-20T00:33:08.423Z,16.82
2019-04-20T00:35:29.627Z,16.83
2019-04-20T00:37:59.237Z,16.78
2019-04-20T00:40:28.955Z,16.80
2019-04-20T00:42:59.945Z,16.75
2019-04-20T00:45:33.238Z,16.76
2019-04-20T00:48:08.179Z,16.75
2019-04-20T00:50:44.578Z,16.73
2019-04-20T00:53:13.351Z,16.71
2019-04-20T00:55:36.082Z,16.65
2019-04-20T00:58:18.494Z,16.63
2019-04-20T01:01:01.492Z,16.51
2019-04-20T01:03:24.744Z,16.53
2019-04-20T01:06:19.312Z,16.52
2019-04-20T01:08:34.073Z,16.44
2019-04-20T01:11:04.230Z,16.30
2019-04-20T01:13:42.126Z,16.26
2019-04-20T01:16:14.582Z,16.28
2019-04-20T01:18:36.676Z,16.29
2019-04-20T01:21:13.855Z,16.24
2019-04-20T01:23:46.214Z,16.28
2019-04-20T01:26:15.335Z,16.27
2019-04-20T01:28:57.719Z,16.25
2019-04-20T01:31:21.870Z,16.27
2019-04-20T01:33:55.098Z,16.28
2019-04-20T01:36:36.871Z,16.24
2019-04-20T01:39:00.186Z,16.23
2019-04-20T01:41:18.234Z,16.13
2019-04-20T01:43:48.150Z,16.13
2019-04-20T01:46:23.077Z,16.03
2019-04-20T01:48:50.521Z,16.02
2019-04-20T01:51:26.440Z,16.03
2019-04-20T01:54:11.774Z,15.98
2019-04-20T01:56:43.468Z,15.90
2019-04-20T01:59:34.747Z,15.95
2019-04-20T02:02:22.796Z,15.90
2019-04-20T02:05:06.129Z,15.80
2019-04-20T02:07:35.021Z,15.74
2019-04-20T02:10:04.552Z,15.73
2019-04-20T02:12:35.503Z,15.76
2019-04-20T02:15:04.782Z,15.75
2019-04-20T02:17:40.791Z,15.79
2019-04-20T02:20:32.131Z,15.76
2019-04-20T02:22:57.009Z,15.74
2019-04-20T02:25:09.952Z,15.58
2019-04-20T02:27:48.182Z,15.55
2019-04-20T02:30:48.200Z,15.36
2019-04-20T02:33:29.882Z,15.37
2019-04-20T02:39:13.701Z,15.43
2019-04-20T02:41:29.077Z,15.31
2019-04-20T02:46:31.542Z,15.27
2019-04-20T02:49:12.926Z,15.32
2019-04-20T02:51:42.325Z,15.35
2019-04-20T02:54:19.151Z,15.33
2019-04-20T02:56:48.388Z,15.28
2019-04-20T02:59:43.289Z,15.28
2019-04-20T03:01:36.452Z,15.18
2019-04-20T03:03:52.685Z,15.01
2019-04-20T03:06:32.912Z,14.99
2019-04-20T03:09:17.688Z,15.02
2019-04-20T03:11:55.315Z,15.08
2019-04-20T03:14:09.566Z,15.04
2019-04-20T03:16:43.663Z,15.01
2019-04-20T03:19:14.572Z,14.97
2019-04-20T03:21:54.123Z,14.99
2019-04-20T03:24:26.821Z,15.02
2019-04-20T03:27:00.832Z,15.04
2019-04-20T03:30:03.695Z,15.01
2019-04-20T03:35:22.423Z,14.81
2019-04-20T03:37:52.671Z,14.65
2019-04-20T03:40:19.165Z,14.76
2019-04-20T03:42:34.895Z,14.68
2019-04-20T03:45:09.768Z,14.76
2019-04-20T03:47:49.862Z,14.81
2019-04-20T03:50:32.620Z,14.83
2019-04-20T03:53:13.068Z,14.83
2019-04-20T03:56:10.054Z,14.81
2019-04-20T03:58:47.301Z,14.73
2019-04-20T04:02:03.335Z,14.62
2019-04-20T04:04:19.392Z,14.62
2019-04-20T04:06:37.251Z,14.57
2019-04-20T04:09:13.626Z,14.54
2019-04-20T04:11:46.136Z,14.51
2019-04-20T04:14:00.923Z,14.40
2019-04-20T04:16:39.438Z,14.42
2019-04-20T04:19:12.710Z,14.36
2019-04-20T04:21:49.842Z,14.35
2019-04-20T04:24:17.070Z,14.28
2019-04-20T04:26:51.679Z,14.30
2019-04-20T04:29:31.103Z,14.30
2019-04-20T04:32:10.458Z,14.44
2019-04-20T04:34:32.327Z,14.50
2019-04-20T04:37:04.834Z,14.42
2019-04-20T04:39:36.959Z,14.43
2019-04-20T04:42:13.655Z,14.47
2019-04-20T04:44:33.547Z,14.48
2019-04-20T04:46:54.688Z,14.62
2019-04-20T04:49:26.320Z,14.70
2019-04-20T04:51:58.582Z,14.74
2019-04-20T04:54:28.756Z,14.94
2019-04-20T04:56:52.694Z,15.06
2019-04-20T04:59:23.521Z,15.22
2019-04-20T05:01:56.549Z,15.40
2019-04-20T05:05:05.195Z,15.53
2019-04-20T05:07:38.338Z,15.66
2019-04-20T05:09:59.036Z,15.69
2019-04-20T05:12:33.078Z,15.90
2019-04-20T05:15:07.602Z,16.19
2019-04-20T05:17:50.237Z,16.40
2019-04-20T05:20:22.868Z,16.68
2019-04-20T05:22:58.770Z,16.91
2019-04-20T05:26:10.091Z,17.18
2019-04-20T05:28:32.327Z,17.36
2019-04-20T05:30:55.892Z,17.69
2019-04-20T05:33:34.479Z,17.97
2019-04-20T05:36:14.774Z,18.29
2019-04-20T05:38:50.420Z,18.58
2019-04-20T05:41:20.138Z,18.81
2019-04-20T05:43:57.285Z,19.00
2019-04-20T05:46:31.991Z,18.92
2019-04-20T05:49:05.291Z,19.03
2019-04-20T05:51:39.777Z,19.43
2019-04-20T05:54:07.223Z,19.59
2019-04-20T05:56:40.285Z,19.68
2019-04-20T05:59:04.604Z,20.00
2019-04-20T06:01:49.949Z,20.45
2019-04-20T06:04:10.427Z,20.68
2019-04-20T06:06:44.670Z,20.78
2019-04-20T06:09:20.960Z,21.01
2019-04-20T06:12:01.349Z,21.25
2019-04-20T06:14:10.198Z,21.33
2019-04-20T06:17:15.985Z,20.99
2019-04-20T06:19:46.953Z,21.06
2019-04-20T06:22:31.386Z,21.44
2019-04-20T06:25:19.611Z,21.82
2019-04-20T06:27:40.978Z,22.23
2019-04-20T06:30:08.598Z,22.56
2019-04-20T06:33:21.561Z,22.74
2019-04-20T06:36:09.338Z,22.84
2019-04-20T06:38:36.529Z,22.95
2019-04-20T06:41:00.617Z,23.18
2019-04-20T06:43:19.235Z,23.30
2019-04-20T06:46:01.927Z,23.48
2019-04-20T06:48:29.315Z,23.61
2019-04-20T06:50:53.027Z,23.80
2019-04-20T06:53:43.622Z,24.00
2019-04-20T06:56:17.203Z,24.33
2019-04-20T06:59:04.257Z,24.55
2019-04-20T07:01:17.149Z,24.72
2019-04-20T07:06:34.292Z,24.93
2019-04-20T07:11:25.118Z,25.46
2019-04-20T07:13:45.865Z,25.55
2019-04-20T07:16:34.906Z,24.40
